Time;durP1;ratioP1;P1;durP2;ratioP2;P2;SDS_P1;SDS_P2;PMS_P1;PMS_P2;Temp;Humidity;BMP_temperature;BMP_pressure;BME280_temperature;BME280_humidity;BME280_pressure;Samples;Min_cycle;Max_cycle;Signal;HPM_P1;HPM_P2
2022/09/01 00:04:02;;;;;;;3.83;1.83;;;;;;;24.94;46.15;100329.53;20678780;28;20038;-74
2022/09/01 00:14:05;;;;;;;2.25;1.70;;;;;;;24.89;46.97;100318.53;20700166;28;20041;-74
2022/09/01 00:24:07;;;;;;;2.78;1.80;;;;;;;24.74;47.20;100334.06;20664184;28;20049;-74
2022/09/01 00:34:07;;;;;;;4.50;1.92;;;;;;;24.61;48.11;100352.88;20699173;28;20038;-74
2022/09/01 00:44:13;;;;;;;2.17;1.70;;;;;;;24.49;47.69;100371.72;20725688;28;20068;-74
2022/09/01 00:54:20;;;;;;;5.75;2.03;;;;;;;24.34;48.46;100371.28;20711468;28;20547;-74
2022/09/01 01:04:21;;;;;;;10.07;2.00;;;;;;;24.23;48.92;100366.97;20683047;28;21014;-74
2022/09/01 01:14:22;;;;;;;3.23;1.90;;;;;;;24.17;49.29;100373.66;20678151;28;20125;-74
2022/09/01 01:24:25;;;;;;;4.47;2.10;;;;;;;24.07;49.29;100376.31;20676476;28;21613;-74
2022/09/01 01:34:25;;;;;;;2.78;1.60;;;;;;;24.00;49.21;100371.69;20688347;28;20038;-75
2022/09/01 01:44:29;;;;;;;5.40;2.00;;;;;;;23.88;49.48;100384.19;20700941;28;20053;-76
2022/09/01 01:54:31;;;;;;;2.95;1.83;;;;;;;23.77;49.93;100378.03;20681038;28;20134;-75
2022/09/01 02:04:32;;;;;;;4.67;1.70;;;;;;;23.67;50.13;100378.00;20676743;28;20038;-76
2022/09/01 02:14:33;;;;;;;2.50;1.70;;;;;;;23.62;50.52;100351.16;20681034;28;20117;-74
2022/09/01 02:24:34;;;;;;;3.00;1.77;;;;;;;23.59;50.15;100329.44;20668347;28;20053;-75
2022/09/01 02:34:37;;;;;;;5.63;1.45;;;;;;;23.49;50.69;100335.53;20650219;28;20580;-74
2022/09/01 02:44:37;;;;;;;3.00;1.50;;;;;;;23.46;49.93;100337.63;20673702;28;20154;-74
2022/09/01 02:54:38;;;;;;;2.47;1.30;;;;;;;23.45;49.72;100307.72;20677203;28;20045;-74
2022/09/01 03:04:38;;;;;;;2.08;1.40;;;;;;;23.36;49.26;100311.16;20679993;28;20030;-75
2022/09/01 03:14:39;;;;;;;3.38;1.60;;;;;;;23.28;49.69;100303.91;20669082;28;20056;-75
2022/09/01 03:24:39;;;;;;;1.85;1.40;;;;;;;23.26;49.31;100312.97;20678672;28;20120;-74
2022/09/01 03:34:40;;;;;;;2.08;1.27;;;;;;;23.24;49.53;100294.59;20667639;28;23821;-74
2022/09/01 03:44:43;;;;;;;1.50;1.20;;;;;;;23.13;49.61;100311.34;20667489;28;20042;-74
2022/09/01 03:54:44;;;;;;;3.72;1.63;;;;;;;23.28;49.43;100334.81;20664169;28;20041;-74
2022/09/01 04:04:45;;;;;;;4.57;1.40;;;;;;;23.56;49.14;100324.41;20690405;28;20048;-72
2022/09/01 04:14:47;;;;;;;5.45;1.50;;;;;;;23.71;49.46;100314.31;20613632;28;20439;-83
2022/09/01 04:24:49;;;;;;;;;;;;;;;23.83;49.86;100314.03;20674405;28;20042;-75
2022/09/01 04:34:49;;;;;;;7.43;1.97;;;;;;;23.98;50.03;100317.13;20678099;28;19934;-76
2022/09/01 04:44:52;;;;;;;3.65;1.40;;;;;;;23.85;48.60;100300.66;20641688;28;20045;-79
2022/09/01 04:54:53;;;;;;;3.80;1.55;;;;;;;23.58;48.70;100306.63;20648819;28;20116;-78
2022/09/01 05:04:57;;;;;;;6.95;1.88;;;;;;;23.77;49.58;100308.47;20664929;28;20074;-77
2022/09/01 05:14:57;;;;;;;6.03;1.85;;;;;;;23.68;48.41;100304.84;20642588;28;20100;-78
2022/09/01 05:25:10;;;;;;;4.22;1.92;;;;;;;23.85;48.48;100310.41;20676270;28;20042;-79
2022/09/01 05:35:11;;;;;;;3.92;1.90;;;;;;;23.92;48.52;100312.38;20672317;28;20052;-80
2022/09/01 05:45:11;;;;;;;5.97;2.20;;;;;;;24.01;48.42;100310.75;20661631;28;20042;-78
2022/09/01 05:55:13;;;;;;;4.90;2.20;;;;;;;24.05;48.82;100322.69;20691287;28;20069;-75
2022/09/01 06:05:14;;;;;;;;;;;;;;;24.02;48.11;100324.78;20703980;28;20030;-73
2022/09/01 06:15:17;;;;;;;4.97;2.00;;;;;;;24.02;48.75;100344.13;20685843;28;19987;-75
2022/09/01 06:25:19;;;;;;;6.32;3.17;;;;;;;24.02;48.56;100325.63;20698230;28;20038;-74
2022/09/01 06:35:23;;;;;;;3.83;2.47;;;;;;;24.02;48.39;100327.44;20660229;28;20041;-77
2022/09/01 06:45:24;;;;;;;5.20;2.35;;;;;;;24.01;48.12;100331.06;20693060;28;20050;-75
2022/09/01 06:55:30;;;;;;;4.38;2.53;;;;;;;24.01;48.10;100346.91;20666078;28;20061;-73
2022/09/01 07:05:33;;;;;;;6.63;3.10;;;;;;;23.91;47.74;100344.25;20684323;28;20053;-73
2022/09/01 07:15:38;;;;;;;3.60;2.38;;;;;;;23.88;47.96;100352.47;20680536;28;20053;-74
2022/09/01 07:25:42;;;;;;;2.67;1.80;;;;;;;23.87;47.80;100362.19;20666837;28;20072;-73
2022/09/01 07:35:42;;;;;;;6.90;2.15;;;;;;;23.84;48.19;100354.53;20698409;28;20054;-73
2022/09/01 07:45:46;;;;;;;11.80;3.63;;;;;;;23.83;48.45;100361.63;20658399;28;20544;-73
2022/09/01 07:55:51;;;;;;;27.05;7.53;;;;;;;23.85;48.52;100374.69;20698402;28;20045;-74
2022/09/01 08:05:56;;;;;;;14.93;5.53;;;;;;;23.91;48.54;100375.97;20681745;28;20038;-74
2022/09/01 08:15:56;;;;;;;10.93;5.10;;;;;;;23.87;48.86;100364.84;20688431;28;20050;-77
2022/09/01 08:25:57;;;;;;;6.35;3.22;;;;;;;23.90;48.57;100372.50;20670460;28;20045;-73
2022/09/01 08:35:57;;;;;;;10.25;3.50;;;;;;;23.92;48.29;100373.22;20688264;28;20052;-73
2022/09/01 08:46:08;;;;;;;17.60;3.63;;;;;;;23.91;48.07;100373.31;20698104;28;20056;-74
2022/09/01 08:56:10;;;;;;;6.55;3.08;;;;;;;23.91;48.28;100371.53;20686388;28;20046;-74
2022/09/01 09:06:17;;;;;;;3.15;2.33;;;;;;;23.93;48.50;100374.06;20700709;28;20048;-74
2022/09/01 09:16:24;;;;;;;18.30;4.07;;;;;;;23.93;47.96;100372.25;20681528;28;20037;-75
2022/09/01 09:26:24;;;;;;;6.78;2.83;;;;;;;23.96;47.70;100361.41;20694213;28;20084;-74
2022/09/01 09:36:34;;;;;;;7.95;3.58;;;;;;;23.97;47.48;100357.78;20687952;28;20050;-76
2022/09/01 09:46:37;;;;;;;4.38;2.38;;;;;;;24.00;47.58;100353.19;20664637;28;20054;-75
2022/09/01 09:56:40;;;;;;;3.65;2.10;;;;;;;24.02;46.74;100341.47;20682418;28;20083;-76
2022/09/01 10:06:46;;;;;;;3.72;2.60;;;;;;;23.90;46.10;100335.47;20675928;28;20045;-76
2022/09/01 10:16:53;;;;;;;9.73;2.22;;;;;;;23.86;46.85;100333.25;20671795;28;20508;-75
2022/09/01 10:26:57;;;;;;;3.75;1.50;;;;;;;23.87;45.95;100332.28;20660142;28;20068;-75
2022/09/01 10:36:59;;;;;;;7.35;2.10;;;;;;;23.97;46.21;100323.41;20678942;28;20053;-76
2022/09/01 10:47:08;;;;;;;6.47;1.73;;;;;;;24.08;46.09;100316.28;20699142;28;20041;-76
2022/09/01 10:57:20;;;;;;;3.00;1.33;;;;;;;24.23;43.20;100324.63;20698673;28;20123;-75
2022/09/01 11:07:22;;;;;;;2.78;1.00;;;;;;;24.32;41.91;100320.34;20702373;28;20041;-75
2022/09/01 11:17:30;;;;;;;4.15;1.15;;;;;;;24.42;41.85;100315.84;20661435;28;20044;-75
2022/09/01 11:27:49;;;;;;;4.90;1.08;;;;;;;24.51;39.62;100304.41;20679041;28;20092;-75
2022/09/01 11:37:53;;;;;;;5.22;1.00;;;;;;;24.57;38.26;100310.94;20653316;28;20150;-75
2022/09/01 11:47:59;;;;;;;1.52;0.95;;;;;;;24.61;37.94;100293.81;20694473;28;20108;-75
2022/09/01 11:58:00;;;;;;;3.13;0.73;;;;;;;24.73;38.73;100300.63;20671079;28;20537;-74
2022/09/01 12:08:21;;;;;;;1.50;0.77;;;;;;;24.76;38.55;100289.72;20690037;28;21107;-75
2022/09/01 12:18:30;;;;;;;2.77;0.80;;;;;;;24.84;37.87;100280.22;20675105;28;20046;-82
2022/09/01 12:28:33;;;;;;;3.53;1.13;;;;;;;24.89;37.56;100270.88;20674921;28;25682;-82
2022/09/01 12:38:33;;;;;;;0.90;0.90;;;;;;;24.94;36.47;100273.91;20680832;28;20050;-82
2022/09/01 12:48:36;;;;;;;2.40;0.90;;;;;;;25.03;35.23;100279.31;20580623;28;20046;-79
2022/09/01 12:58:37;;;;;;;1.48;1.00;;;;;;;25.10;35.08;100252.06;20649872;28;20043;-81
2022/09/01 13:08:38;;;;;;;3.00;1.30;;;;;;;25.21;35.51;100260.81;20649118;28;20043;-80
2022/09/01 13:18:41;;;;;;;4.07;1.00;;;;;;;25.23;35.83;100248.22;20628641;28;20053;-80
2022/09/01 13:28:41;;;;;;;2.08;0.90;;;;;;;25.26;35.35;100254.06;20662451;28;20485;-80
2022/09/01 13:38:42;;;;;;;4.18;1.08;;;;;;;25.33;35.94;100256.13;20703572;28;20125;-79
2022/09/01 13:48:43;;;;;;;9.18;0.90;;;;;;;25.34;35.70;100265.75;20679949;28;20049;-81
2022/09/01 13:58:44;;;;;;;0.70;0.70;;;;;;;25.41;35.07;100261.53;20693349;28;20065;-81
2022/09/01 14:08:44;;;;;;;0.80;0.68;;;;;;;25.42;34.61;100263.22;20676154;28;20050;-81
2022/09/01 14:18:44;;;;;;;0.80;0.70;;;;;;;25.40;34.53;100258.06;20686492;28;20045;-79
2022/09/01 14:28:47;;;;;;;4.32;0.88;;;;;;;25.40;34.86;100262.53;20674805;28;20046;-81
2022/09/01 14:38:48;;;;;;;4.70;0.90;;;;;;;25.42;34.43;100258.72;20680772;28;20129;-78
2022/09/01 14:48:49;;;;;;;1.17;0.90;;;;;;;25.43;34.40;100267.53;20646134;28;20037;-78
2022/09/01 14:58:57;;;;;;;3.23;0.83;;;;;;;25.44;33.52;100257.75;20707505;28;20592;-79
2022/09/01 15:08:58;;;;;;;0.60;0.60;;;;;;;25.48;33.77;100259.97;20674204;28;20045;-80
2022/09/01 15:18:59;;;;;;;7.43;0.90;;;;;;;25.53;35.26;100265.63;20654043;28;20050;-80
2022/09/01 15:29:00;;;;;;;1.65;0.90;;;;;;;25.56;34.60;100262.69;20677796;28;20041;-78
2022/09/01 15:39:01;;;;;;;1.35;0.90;;;;;;;25.64;35.01;100267.22;20634220;28;20461;-75
2022/09/01 15:49:06;;;;;;;3.83;0.90;;;;;;;25.77;35.97;100266.00;20640094;28;20049;-77
2022/09/01 15:59:09;;;;;;;2.75;0.93;;;;;;;25.88;35.17;100269.28;20626581;28;20497;-75
2022/09/01 16:09:10;;;;;;;4.18;0.90;;;;;;;25.98;35.44;100268.38;20669779;28;20034;-78
2022/09/01 16:19:28;;;;;;;1.33;0.98;;;;;;;25.93;35.44;100278.59;20679309;28;20600;-74
2022/09/01 16:29:39;;;;;;;1.15;0.82;;;;;;;25.88;34.87;100279.06;20675493;28;20120;-78
2022/09/01 16:39:46;;;;;;;2.67;0.87;;;;;;;25.79;34.86;100270.19;20698918;28;20056;-77
2022/09/01 16:50:09;;;;;;;1.50;1.25;;;;;;;25.69;35.13;100277.41;20681591;28;20080;-76
2022/09/01 17:00:13;;;;;;;8.82;4.10;;;;;;;25.61;35.42;100291.41;20623583;28;20041;-75
2022/09/01 17:11:03;;;;;;;15.20;8.65;;;;;;;25.51;35.01;100282.69;20678155;28;20489;-77
2022/09/01 17:21:17;;;;;;;11.32;6.13;;;;;;;25.43;34.99;100283.44;20662572;28;20141;-76
2022/09/01 17:31:23;;;;;;;10.07;4.13;;;;;;;25.33;34.67;100293.22;20639404;28;20045;-74
2022/09/01 17:41:37;;;;;;;4.68;3.45;;;;;;;25.16;34.39;100300.16;20688754;28;20092;-76
2022/09/01 17:51:44;;;;;;;3.97;1.77;;;;;;;24.97;34.73;100309.84;20696185;28;20046;-75
2022/09/01 18:01:50;;;;;;;5.85;1.77;;;;;;;24.88;34.60;100329.28;20697467;28;20096;-76
2022/09/01 18:12:01;;;;;;;3.17;1.60;;;;;;;24.74;35.19;100342.00;20707358;28;20037;-76
2022/09/01 18:22:08;;;;;;;3.00;1.60;;;;;;;24.58;35.33;100345.22;20674213;28;20172;-76
2022/09/01 18:32:11;;;;;;;6.25;1.70;;;;;;;24.49;36.03;100356.66;20692117;28;20066;-77
2022/09/01 18:42:29;;;;;;;6.88;2.10;;;;;;;24.46;36.97;100363.06;20698852;28;20046;-78
2022/09/01 18:52:55;;;;;;;5.43;2.40;;;;;;;24.50;37.37;100371.56;20682157;28;20444;-74
2022/09/01 19:03:03;;;;;;;5.80;2.00;;;;;;;24.52;37.45;100376.72;20677451;28;20074;-76
2022/09/01 19:13:13;;;;;;;5.10;2.38;;;;;;;24.35;38.11;100383.53;20674882;28;20507;-76
2022/09/01 19:23:26;;;;;;;5.43;2.22;;;;;;;24.24;38.68;100380.06;20705331;28;20057;-78
2022/09/01 19:33:31;;;;;;;6.03;3.80;;;;;;;24.14;39.03;100379.22;20724399;28;20064;-78
2022/09/01 19:43:36;;;;;;;7.40;4.63;;;;;;;24.07;38.91;100396.63;20699814;28;20031;-78
2022/09/01 19:54:00;;;;;;;7.20;2.97;;;;;;;24.03;39.33;100406.63;20730685;28;20060;-78
2022/09/01 20:04:11;;;;;;;9.68;2.60;;;;;;;23.94;39.52;100420.69;20702408;28;20038;-79
2022/09/01 20:14:27;;;;;;;3.10;1.83;;;;;;;23.87;39.86;100423.00;20711330;28;20049;-80
2022/09/01 20:24:36;;;;;;;3.92;1.50;;;;;;;23.81;39.72;100423.56;20741307;28;20095;-80
2022/09/01 20:34:43;;;;;;;5.03;1.58;;;;;;;23.77;39.98;100428.28;20724136;28;20057;-79
2022/09/01 20:44:53;;;;;;;6.20;1.85;;;;;;;23.65;40.04;100432.00;20732656;28;20037;-79
2022/09/01 20:55:07;;;;;;;3.72;1.45;;;;;;;23.62;40.58;100440.19;20744122;28;20038;-79
2022/09/01 21:05:22;;;;;;;2.22;1.55;;;;;;;23.59;40.26;100454.50;20746940;28;20731;-79
2022/09/01 21:15:39;;;;;;;2.67;1.52;;;;;;;23.52;40.20;100466.56;20757010;28;20046;-79
2022/09/01 21:25:42;;;;;;;3.60;1.40;;;;;;;23.42;40.26;100469.16;20739979;28;20041;-79
2022/09/01 21:35:44;;;;;;;1.88;1.10;;;;;;;23.49;39.71;100478.25;20738832;28;20738;-79
2022/09/01 21:45:44;;;;;;;1.83;1.20;;;;;;;23.37;38.83;100474.03;20749056;28;20045;-78
2022/09/01 21:55:46;;;;;;;3.58;1.30;;;;;;;23.29;38.74;100477.31;20773697;28;20514;-79
2022/09/01 22:05:46;;;;;;;0.97;0.80;;;;;;;23.26;37.84;100474.94;20715370;28;20049;-75
2022/09/01 22:15:50;;;;;;;3.08;1.00;;;;;;;23.18;38.39;100462.38;20666828;28;20516;-75
2022/09/01 22:25:51;;;;;;;1.63;1.00;;;;;;;23.12;38.58;100448.81;20680767;28;20112;-75
2022/09/01 22:35:53;;;;;;;1.63;1.10;;;;;;;23.08;38.08;100447.41;20671687;28;20054;-75
2022/09/01 22:45:55;;;;;;;1.83;0.90;;;;;;;23.20;37.99;100435.81;20668380;28;20173;-75
2022/09/01 22:55:56;;;;;;;1.43;0.70;;;;;;;23.18;37.23;100443.91;20658012;28;20050;-75
2022/09/01 23:06:09;;;;;;;1.27;0.90;;;;;;;23.18;36.62;100443.06;20655179;28;20125;-76
2022/09/01 23:16:12;;;;;;;1.95;0.82;;;;;;;23.09;35.76;100436.72;20647595;28;20069;-76
2022/09/01 23:26:13;;;;;;;2.33;0.80;;;;;;;23.05;35.53;100429.19;20576891;28;20052;-76
2022/09/01 23:36:17;;;;;;;1.53;1.00;;;;;;;22.98;35.31;100424.41;20630240;28;20042;-75
2022/09/01 23:46:21;;;;;;;2.80;0.77;;;;;;;22.92;35.22;100422.28;20658636;28;20287;-75
2022/09/01 23:56:24;;;;;;;1.52;0.80;;;;;;;22.85;35.29;100424.63;20659077;28;20133;-75
